createdAt,value
2022-08-30T00:03:21.047Z,69.35
2022-08-30T00:08:23.855Z,69.85
2022-08-30T00:13:26.440Z,69.44
2022-08-30T00:18:28.716Z,69.67
2022-08-30T00:23:31.428Z,69.99
2022-08-30T00:28:34.398Z,70.00
2022-08-30T00:33:37.238Z,70.02
2022-08-30T00:38:39.505Z,70.10
2022-08-30T00:43:42.131Z,70.52
2022-08-30T00:48:46.590Z,70.52
2022-08-30T00:53:55.077Z,70.87
2022-08-30T00:58:58.137Z,69.66
2022-08-30T01:04:00.869Z,70.31
2022-08-30T01:09:05.620Z,70.31
2022-08-30T01:14:09.124Z,71.07
2022-08-30T01:19:27.437Z,71.48
2022-08-30T01:24:30.844Z,71.07
2022-08-30T01:29:33.333Z,70.80
2022-08-30T01:34:35.676Z,70.97
2022-08-30T01:39:38.512Z,71.38
2022-08-30T01:44:40.853Z,71.16
2022-08-30T01:49:43.904Z,70.92
2022-08-30T01:54:46.972Z,70.77
2022-08-30T01:59:50.470Z,71.01
2022-08-30T02:04:53.766Z,71.14
2022-08-30T02:09:57.098Z,71.25
2022-08-30T02:14:59.456Z,71.31
2022-08-30T02:20:02.180Z,71.49
2022-08-30T02:25:07.435Z,71.70
2022-08-30T02:30:22.964Z,71.53
2022-08-30T02:35:25.527Z,71.72
2022-08-30T02:40:27.884Z,71.78
2022-08-30T02:45:30.353Z,71.71
2022-08-30T02:50:32.648Z,71.83
2022-08-30T02:55:35.070Z,72.10
2022-08-30T03:00:37.844Z,71.74
2022-08-30T03:05:40.085Z,72.00
2022-08-30T03:10:44.287Z,72.19
2022-08-30T03:15:48.019Z,72.43
2022-08-30T03:20:54.233Z,72.35
2022-08-30T03:25:57.652Z,72.42
2022-08-30T03:31:00.096Z,72.71
2022-08-30T03:36:02.554Z,72.46
2022-08-30T03:41:06.166Z,72.64
2022-08-30T03:46:11.640Z,72.91
2022-08-30T03:51:13.942Z,72.40
2022-08-30T03:56:16.532Z,72.28
2022-08-30T04:01:18.980Z,72.31
2022-08-30T04:06:21.253Z,72.49
2022-08-30T04:11:23.520Z,72.59
2022-08-30T04:16:26.686Z,72.58
2022-08-30T04:21:31.099Z,72.84
2022-08-30T04:26:34.281Z,72.82
2022-08-30T04:31:36.589Z,72.83
2022-08-30T04:36:39.274Z,72.72
2022-08-30T04:41:41.524Z,72.63
2022-08-30T04:46:44.425Z,72.85
2022-08-30T04:51:47.312Z,72.53
2022-08-30T04:56:52.403Z,72.35
2022-08-30T05:01:54.844Z,72.71
2022-08-30T05:06:57.192Z,72.29
2022-08-30T05:11:59.410Z,72.17
2022-08-30T05:17:01.700Z,72.25
2022-08-30T05:22:04.398Z,72.08
2022-08-30T05:27:06.718Z,72.05
2022-08-30T05:32:09.483Z,71.96
2022-08-30T05:37:11.708Z,71.93
2022-08-30T05:42:16.883Z,71.58
2022-08-30T05:47:20.157Z,71.39
2022-08-30T05:52:22.529Z,71.06
2022-08-30T05:57:25.217Z,70.27
2022-08-30T06:02:28.246Z,70.26
2022-08-30T06:07:30.505Z,69.63
2022-08-30T06:12:32.987Z,68.82
2022-08-30T06:17:35.224Z,69.01
2022-08-30T06:22:39.151Z,68.81
2022-08-30T06:27:42.419Z,68.00
2022-08-30T06:32:44.721Z,67.59
2022-08-30T06:37:46.983Z,66.63
2022-08-30T06:42:49.587Z,66.19
2022-08-30T06:47:51.834Z,66.33
2022-08-30T06:52:54.542Z,65.66
2022-08-30T06:58:00.774Z,65.23
2022-08-30T07:03:03.205Z,65.23
2022-08-30T07:08:05.524Z,64.84
2022-08-30T07:13:09.611Z,64.76
2022-08-30T07:18:31.445Z,64.73
2022-08-30T07:23:35.457Z,63.84
2022-08-30T07:28:39.201Z,63.38
2022-08-30T07:33:41.843Z,62.83
2022-08-30T07:38:46.082Z,63.00
2022-08-30T07:43:48.508Z,62.48
2022-08-30T07:48:51.454Z,62.02
2022-08-30T07:53:54.927Z,61.74
2022-08-30T07:58:57.233Z,60.65
2022-08-30T08:03:59.530Z,60.66
2022-08-30T08:09:02.659Z,59.80
2022-08-30T08:14:05.238Z,60.22
2022-08-30T08:19:09.486Z,59.49
2022-08-30T08:24:11.986Z,58.59
2022-08-30T08:29:14.326Z,58.78
2022-08-30T08:34:19.250Z,57.28
2022-08-30T08:39:21.496Z,56.97
2022-08-30T08:50:19.565Z,55.36
2022-08-30T08:55:22.997Z,55.21
2022-08-30T09:00:25.742Z,54.78
2022-08-30T09:05:37.824Z,54.15
2022-08-30T09:10:50.568Z,54.42
2022-08-30T09:15:56.696Z,51.79
2022-08-30T09:21:05.884Z,54.26
2022-08-30T09:26:09.845Z,50.35
2022-08-30T09:31:26.374Z,49.94
2022-08-30T09:36:33.779Z,48.42
2022-08-30T09:41:42.853Z,48.57
2022-08-30T09:46:52.366Z,47.91
2022-08-30T09:52:03.768Z,46.24
2022-08-30T09:57:17.080Z,47.52
2022-08-30T10:02:58.338Z,47.12
2022-08-30T10:08:12.463Z,46.04
2022-08-30T10:13:42.862Z,44.26
2022-08-30T10:19:10.267Z,44.01
2022-08-30T10:24:19.590Z,45.53
2022-08-30T10:29:29.045Z,45.57
2022-08-30T10:34:52.350Z,45.57
2022-08-30T10:39:59.495Z,44.71
2022-08-30T10:45:08.983Z,43.53
2022-08-30T10:50:19.725Z,42.49
2022-08-30T10:55:29.261Z,42.48
2022-08-30T11:00:56.354Z,42.25
2022-08-30T11:06:01.649Z,42.29
2022-08-30T11:11:18.114Z,42.14
2022-08-30T11:16:20.755Z,43.16
2022-08-30T11:21:34.384Z,42.88
2022-08-30T11:26:46.060Z,42.88
2022-08-30T11:31:48.352Z,42.03
2022-08-30T11:36:53.792Z,41.08
2022-08-30T11:42:14.121Z,40.52
2022-08-30T11:47:40.095Z,40.51
2022-08-30T11:53:07.037Z,39.67
2022-08-30T11:58:25.742Z,38.72
2022-08-30T12:03:33.393Z,38.62
2022-08-30T12:08:44.789Z,39.08
2022-08-30T12:13:47.179Z,37.52
2022-08-30T12:19:00.443Z,37.55
2022-08-30T12:24:30.626Z,39.90
2022-08-30T12:29:32.935Z,41.28
2022-08-30T12:34:41.302Z,39.51
2022-08-30T12:39:44.394Z,38.85
2022-08-30T12:44:48.070Z,38.16
2022-08-30T12:49:50.878Z,37.63
2022-08-30T12:54:54.897Z,38.97
2022-08-30T13:00:02.020Z,38.82
2022-08-30T13:05:45.544Z,37.98
2022-08-30T13:10:54.389Z,37.77
2022-08-30T13:15:56.641Z,38.06
2022-08-30T13:21:25.918Z,37.90
2022-08-30T13:26:30.402Z,37.34
2022-08-30T13:31:33.308Z,37.23
2022-08-30T13:36:44.845Z,36.81
2022-08-30T13:41:47.611Z,37.18
2022-08-30T13:46:55.357Z,36.49
2022-08-30T13:52:19.214Z,38.11
2022-08-30T14:02:51.505Z,38.37
2022-08-30T14:07:59.042Z,39.27
2022-08-30T14:13:13.987Z,39.48
2022-08-30T14:18:18.049Z,39.80
2022-08-30T14:23:21.690Z,38.95
2022-08-30T14:28:24.759Z,39.14
2022-08-30T14:33:27.167Z,40.47
2022-08-30T14:38:29.487Z,40.64
2022-08-30T14:43:31.854Z,40.72
2022-08-30T14:48:34.161Z,41.66
2022-08-30T14:53:37.123Z,41.98
2022-08-30T14:58:39.676Z,42.56
2022-08-30T15:03:42.182Z,43.46
2022-08-30T15:08:47.884Z,43.73
2022-08-30T15:13:52.969Z,44.19
2022-08-30T15:18:56.228Z,43.82
2022-08-30T15:24:01.743Z,44.10
2022-08-30T15:29:04.336Z,43.93
2022-08-30T15:34:13.428Z,42.79
2022-08-30T15:39:16.693Z,42.86
2022-08-30T15:44:19.196Z,43.29
2022-08-30T15:49:23.114Z,42.90
2022-08-30T15:54:26.006Z,43.52
2022-08-30T15:59:29.598Z,44.17
2022-08-30T16:04:31.964Z,44.59
2022-08-30T16:09:35.455Z,44.86
2022-08-30T16:14:40.377Z,45.09
2022-08-30T16:19:42.756Z,45.79
2022-08-30T16:24:46.744Z,46.26
2022-08-30T16:29:50.188Z,46.65
2022-08-30T16:34:52.587Z,46.46
2022-08-30T16:39:54.807Z,46.26
2022-08-30T16:44:57.698Z,47.86
2022-08-30T16:50:00.827Z,48.49
2022-08-30T16:55:03.349Z,48.25
2022-08-30T17:00:13.210Z,48.32
2022-08-30T17:05:15.929Z,48.03
2022-08-30T17:10:20.918Z,48.60
2022-08-30T17:15:27.309Z,48.50
2022-08-30T17:20:34.024Z,49.27
2022-08-30T17:25:37.141Z,49.40
2022-08-30T17:30:39.692Z,49.65
2022-08-30T17:35:42.473Z,49.59
2022-08-30T17:40:44.898Z,49.65
2022-08-30T17:45:47.314Z,50.33
2022-08-30T17:50:57.783Z,51.29
2022-08-30T17:56:00.325Z,50.46
2022-08-30T18:01:11.898Z,50.85
2022-08-30T18:06:17.293Z,51.33
2022-08-30T18:11:19.701Z,53.76
2022-08-30T18:16:26.543Z,53.97
2022-08-30T18:21:29.229Z,54.11
2022-08-30T18:26:32.315Z,55.42
2022-08-30T18:31:35.018Z,55.84
2022-08-30T18:36:38.776Z,57.08
2022-08-30T18:41:42.950Z,57.30
2022-08-30T18:46:55.858Z,58.13
2022-08-30T18:52:02.282Z,58.14
2022-08-30T18:57:05.836Z,59.15
2022-08-30T19:02:11.341Z,59.10
2022-08-30T19:07:18.213Z,59.26
2022-08-30T19:12:21.099Z,59.32
2022-08-30T19:17:23.988Z,59.36
2022-08-30T19:22:39.825Z,60.20
2022-08-30T19:27:51.680Z,60.03
2022-08-30T19:32:54.141Z,61.10
2022-08-30T19:37:56.685Z,61.11
2022-08-30T19:42:59.323Z,60.69
2022-08-30T19:48:02.344Z,60.93
2022-08-30T19:53:05.548Z,60.67
2022-08-30T19:58:07.950Z,60.21
2022-08-30T20:03:11.328Z,60.34
2022-08-30T20:08:13.920Z,60.34
2022-08-30T20:13:16.174Z,60.06
2022-08-30T20:18:18.569Z,60.45
2022-08-30T20:23:24.118Z,60.59
2022-08-30T20:28:27.998Z,60.35
2022-08-30T20:33:30.490Z,60.00
2022-08-30T20:38:33.313Z,60.12
2022-08-30T20:43:35.583Z,60.33
2022-08-30T20:48:38.719Z,60.60
2022-08-30T20:53:41.078Z,60.75
2022-08-30T20:58:46.692Z,61.15
2022-08-30T21:03:48.998Z,61.03
2022-08-30T21:08:51.756Z,61.22
2022-08-30T21:13:54.016Z,61.40
2022-08-30T21:18:56.508Z,61.75
2022-08-30T21:24:01.560Z,63.66
2022-08-30T21:29:04.741Z,63.88
2022-08-30T21:34:07.462Z,64.29
2022-08-30T21:39:20.052Z,65.17
2022-08-30T21:44:26.005Z,65.51
2022-08-30T21:49:28.299Z,65.13
2022-08-30T21:54:31.199Z,65.23
2022-08-30T21:59:34.132Z,65.68
2022-08-30T22:04:36.468Z,65.84
2022-08-30T22:09:38.796Z,66.27
2022-08-30T22:14:41.180Z,66.05
2022-08-30T22:19:43.446Z,66.18
2022-08-30T22:24:45.951Z,66.58
2022-08-30T22:29:48.302Z,66.64
2022-08-30T22:34:51.214Z,66.80
2022-08-30T22:39:53.580Z,66.91
2022-08-30T22:44:55.869Z,67.21
2022-08-30T22:49:58.111Z,67.24
2022-08-30T22:55:00.406Z,67.17
2022-08-30T23:00:06.309Z,67.39
2022-08-30T23:05:09.370Z,67.10
2022-08-30T23:10:12.597Z,66.96
2022-08-30T23:15:16.320Z,67.18
2022-08-30T23:20:18.753Z,67.19
2022-08-30T23:25:41.661Z,67.05
2022-08-30T23:31:05.315Z,67.00
2022-08-30T23:36:31.602Z,67.46
2022-08-30T23:41:52.360Z,67.20
2022-08-30T23:47:13.159Z,67.20
2022-08-30T23:52:33.874Z,67.46
2022-08-30T23:57:54.664Z,67.31
